createdAt,value
2018-08-12T00:01:35.651Z,67.05
2018-08-12T00:04:04.266Z,67.29
2018-08-12T00:06:32.592Z,67.43
2018-08-12T00:09:01.500Z,67.44
2018-08-12T00:11:29.820Z,67.51
2018-08-12T00:13:57.544Z,67.64
2018-08-12T00:16:25.857Z,67.74
2018-08-12T00:18:54.751Z,67.86
2018-08-12T00:21:23.073Z,67.89
2018-08-12T00:23:50.803Z,67.92
2018-08-12T00:26:19.699Z,67.99
2018-08-12T00:28:47.470Z,67.85
2018-08-12T00:31:16.369Z,67.77
2018-08-12T00:33:44.119Z,67.78
2018-08-12T00:36:13.013Z,67.70
2018-08-12T00:38:41.327Z,67.59
2018-08-12T00:41:09.065Z,67.62
2018-08-12T00:43:37.377Z,67.61
2018-08-12T00:46:06.280Z,67.56
2018-08-12T00:48:34.015Z,67.67
2018-08-12T00:51:02.335Z,67.75
2018-08-12T00:53:31.229Z,67.97
2018-08-12T00:55:59.537Z,68.38
2018-08-12T00:58:27.592Z,68.78
2018-08-12T01:00:56.484Z,68.82
2018-08-12T01:03:24.808Z,68.97
2018-08-12T01:05:52.549Z,69.21
2018-08-12T01:08:22.218Z,69.58
2018-08-12T01:10:50.530Z,70.08
2018-08-12T01:13:18.278Z,70.31
2018-08-12T01:15:46.609Z,70.14
2018-08-12T01:18:14.926Z,70.10
2018-08-12T01:20:43.240Z,70.09
2018-08-12T01:23:11.559Z,70.09
2018-08-12T01:25:40.470Z,70.16
2018-08-12T01:28:08.787Z,70.04
2018-08-12T01:30:36.585Z,70.25
2018-08-12T01:33:04.901Z,70.48
2018-08-12T01:35:33.797Z,70.85
2018-08-12T01:38:01.531Z,70.97
2018-08-12T01:40:30.253Z,71.23
2018-08-12T01:42:58.569Z,71.16
2018-08-12T01:45:26.893Z,71.47
2018-08-12T01:47:55.792Z,71.78
2018-08-12T01:50:23.526Z,72.13
2018-08-12T01:52:51.843Z,72.15
2018-08-12T01:55:20.745Z,72.50
2018-08-12T01:57:48.470Z,72.51
2018-08-12T02:00:17.376Z,72.48
2018-08-12T02:02:45.683Z,72.40
2018-08-12T02:05:13.994Z,72.50
2018-08-12T02:07:41.730Z,72.88
2018-08-12T02:10:10.539Z,72.70
2018-08-12T02:12:38.950Z,72.73
2018-08-12T02:15:07.257Z,72.91
2018-08-12T02:17:35.008Z,72.92
2018-08-12T02:20:03.914Z,72.73
2018-08-12T02:22:32.269Z,72.56
2018-08-12T02:24:59.969Z,72.53
2018-08-12T02:27:29.160Z,72.59
2018-08-12T02:29:57.488Z,72.32
2018-08-12T02:32:25.945Z,72.18
2018-08-12T02:34:53.677Z,72.23
2018-08-12T02:37:23.085Z,72.13
2018-08-12T02:39:50.823Z,72.32
2018-08-12T02:42:19.149Z,72.49
2018-08-12T02:44:48.029Z,72.67
2018-08-12T02:47:15.765Z,72.95
2018-08-12T02:49:44.078Z,72.85
2018-08-12T02:52:12.972Z,73.02
2018-08-12T02:54:40.703Z,73.00
2018-08-12T02:57:09.019Z,73.21
2018-08-12T02:59:37.342Z,73.52
2018-08-12T03:02:05.657Z,73.73
2018-08-12T03:04:34.556Z,74.18
2018-08-12T03:07:02.284Z,73.99
2018-08-12T03:09:31.185Z,74.12
2018-08-12T03:11:59.516Z,74.17
2018-08-12T03:14:27.828Z,74.06
2018-08-12T03:16:56.137Z,74.15
2018-08-12T03:19:24.454Z,74.04
2018-08-12T03:21:53.553Z,74.07
2018-08-12T03:24:21.363Z,74.11
2018-08-12T03:26:49.893Z,74.08
2018-08-12T03:29:17.638Z,73.88
2018-08-12T03:31:45.973Z,73.82
2018-08-12T03:34:14.893Z,73.61
2018-08-12T03:36:43.207Z,73.32
2018-08-12T03:39:12.122Z,73.02
2018-08-12T03:41:40.958Z,73.01
2018-08-12T03:44:08.916Z,72.75
2018-08-12T03:46:37.294Z,72.70
2018-08-12T03:49:05.548Z,72.69
2018-08-12T03:51:33.861Z,72.83
2018-08-12T03:54:03.662Z,72.59
2018-08-12T03:56:31.439Z,73.48
2018-08-12T03:59:00.292Z,74.71
2018-08-12T04:01:28.030Z,75.31
2018-08-12T04:03:56.359Z,75.86
2018-08-12T04:06:25.271Z,75.66
2018-08-12T04:08:53.001Z,75.67
2018-08-12T04:11:21.896Z,75.96
2018-08-12T04:13:49.628Z,83.50
2018-08-12T04:16:17.951Z,83.41
2018-08-12T04:18:46.844Z,81.77
2018-08-12T04:21:14.576Z,80.82
2018-08-12T04:23:43.363Z,81.22
2018-08-12T04:26:11.776Z,80.42
2018-08-12T04:28:40.104Z,80.05
2018-08-12T04:31:07.861Z,79.36
2018-08-12T04:33:36.772Z,78.36
2018-08-12T04:36:04.737Z,77.87
2018-08-12T04:38:33.446Z,77.92
2018-08-12T04:41:01.173Z,79.11
2018-08-12T04:43:29.491Z,79.06
2018-08-12T04:45:57.809Z,79.28
2018-08-12T04:48:26.690Z,79.88
2018-08-12T04:50:54.675Z,79.12
2018-08-12T04:53:23.320Z,78.52
2018-08-12T04:55:51.062Z,78.53
2018-08-12T04:58:19.965Z,78.20
2018-08-12T05:00:48.290Z,78.41
2018-08-12T05:03:16.028Z,81.63
2018-08-12T05:05:44.929Z,79.92
2018-08-12T05:08:13.248Z,80.02
2018-08-12T05:10:41.573Z,80.05
2018-08-12T05:13:09.903Z,80.21
2018-08-12T05:15:37.625Z,80.17
2018-08-12T05:18:06.533Z,79.97
2018-08-12T05:20:34.841Z,79.95
2018-08-12T05:23:03.674Z,79.85
2018-08-12T05:25:31.425Z,79.36
2018-08-12T05:27:59.737Z,79.14
2018-08-12T05:30:28.637Z,79.02
2018-08-12T05:32:56.958Z,78.70
2018-08-12T05:35:25.278Z,78.14
2018-08-12T05:37:53.061Z,77.27
2018-08-12T05:40:21.380Z,76.93
2018-08-12T05:42:49.695Z,76.40
2018-08-12T05:45:18.593Z,75.47
2018-08-12T05:47:46.331Z,75.60
2018-08-12T05:50:14.645Z,75.05
2018-08-12T05:52:43.542Z,74.88
2018-08-12T05:55:11.279Z,74.54
2018-08-12T05:57:39.590Z,74.48
2018-08-12T06:00:07.908Z,74.07
2018-08-12T06:02:36.959Z,73.66
2018-08-12T06:05:04.704Z,73.44
2018-08-12T06:07:33.032Z,73.37
2018-08-12T06:10:01.356Z,72.72
2018-08-12T06:12:29.673Z,71.53
2018-08-12T06:14:58.569Z,71.10
2018-08-12T06:17:26.379Z,70.77
2018-08-12T06:19:55.210Z,70.07
2018-08-12T06:22:23.527Z,70.53
2018-08-12T06:24:51.262Z,70.75
2018-08-12T06:27:19.691Z,70.63
2018-08-12T06:29:47.921Z,69.90
2018-08-12T06:32:16.497Z,70.08
2018-08-12T06:34:44.829Z,70.04
2018-08-12T06:37:13.723Z,69.29
2018-08-12T06:39:42.093Z,68.94
2018-08-12T06:42:10.419Z,68.54
2018-08-12T06:44:38.743Z,67.70
2018-08-12T06:47:07.049Z,67.97
2018-08-12T06:49:34.808Z,67.10
2018-08-12T06:52:07.736Z,67.59
2018-08-12T06:54:35.752Z,67.29
2018-08-12T06:57:04.070Z,67.54
2018-08-12T06:59:31.815Z,67.50
2018-08-12T07:02:00.749Z,67.48
2018-08-12T07:04:29.074Z,66.92
2018-08-12T07:06:57.381Z,65.85
2018-08-12T07:09:25.118Z,66.06
2018-08-12T07:11:54.015Z,65.57
2018-08-12T07:14:22.475Z,64.08
2018-08-12T07:16:50.182Z,65.29
2018-08-12T07:19:19.080Z,64.18
2018-08-12T07:21:47.399Z,63.57
2018-08-12T07:24:15.142Z,63.58
2018-08-12T07:26:43.768Z,64.21
2018-08-12T07:29:12.659Z,63.97
2018-08-12T07:31:40.400Z,64.21
2018-08-12T07:34:08.734Z,63.61
2018-08-12T07:36:37.052Z,63.51
2018-08-12T07:39:05.981Z,62.83
2018-08-12T07:41:34.329Z,62.31
2018-08-12T07:44:02.657Z,63.39
2018-08-12T07:46:30.987Z,63.62
2018-08-12T07:48:59.306Z,63.07
2018-08-12T07:51:27.044Z,63.73
2018-08-12T07:53:55.946Z,63.53
2018-08-12T07:56:24.264Z,63.21
2018-08-12T07:58:52.582Z,63.03
2018-08-12T08:01:21.038Z,62.91
2018-08-12T08:03:49.356Z,63.05
2018-08-12T08:06:17.713Z,63.25
2018-08-12T08:08:45.441Z,63.66
2018-08-12T08:11:14.579Z,62.91
2018-08-12T08:13:42.905Z,63.01
2018-08-12T08:16:11.231Z,62.05
2018-08-12T08:18:39.568Z,62.01
2018-08-12T08:21:10.857Z,62.31
2018-08-12T08:23:39.182Z,61.96
2018-08-12T08:26:07.509Z,61.86
2018-08-12T08:28:35.890Z,61.21
2018-08-12T08:31:03.778Z,61.63
2018-08-12T08:33:31.964Z,60.84
2018-08-12T08:36:00.865Z,61.21
2018-08-12T08:38:28.609Z,61.04
2018-08-12T08:40:57.508Z,61.57
2018-08-12T08:43:25.862Z,60.89
2018-08-12T08:45:54.504Z,61.11
2018-08-12T08:48:22.841Z,61.70
2018-08-12T08:50:51.168Z,62.28
2018-08-12T08:53:18.929Z,62.29
2018-08-12T08:55:47.958Z,62.41
2018-08-12T08:58:16.265Z,62.66
2018-08-12T09:00:44.584Z,63.09
2018-08-12T09:03:12.913Z,61.88
2018-08-12T09:05:41.483Z,61.38
2018-08-12T09:08:09.640Z,59.32
2018-08-12T09:10:37.305Z,60.87
2018-08-12T09:13:06.207Z,60.70
2018-08-12T09:15:34.569Z,59.81
2018-08-12T09:18:02.322Z,58.99
2018-08-12T09:20:31.441Z,58.38
2018-08-12T09:22:58.952Z,59.08
2018-08-12T09:25:27.854Z,59.32
2018-08-12T09:27:56.170Z,59.63
2018-08-12T09:30:24.554Z,59.66
2018-08-12T09:32:52.869Z,58.69
2018-08-12T09:35:21.206Z,58.16
2018-08-12T09:37:50.971Z,58.07
2018-08-12T09:40:17.863Z,58.26
2018-08-12T09:42:46.192Z,58.92
2018-08-12T09:45:14.673Z,58.19
2018-08-12T09:47:42.413Z,57.27
2018-08-12T09:50:11.325Z,56.57
2018-08-12T09:52:39.662Z,55.98
2018-08-12T09:55:07.981Z,55.84
2018-08-12T09:57:36.322Z,55.37
2018-08-12T10:00:04.645Z,55.50
2018-08-12T10:02:32.963Z,55.12
2018-08-12T10:05:01.275Z,54.59
2018-08-12T10:07:29.054Z,55.04
2018-08-12T10:09:57.358Z,54.48
2018-08-12T10:12:26.259Z,54.64
2018-08-12T10:14:54.016Z,54.28
2018-08-12T10:17:22.915Z,54.79
2018-08-12T10:19:51.235Z,55.36
2018-08-12T10:22:19.596Z,55.52
2018-08-12T10:24:47.930Z,55.95
2018-08-12T10:27:16.254Z,54.73
2018-08-12T10:29:44.627Z,55.51
2018-08-12T10:32:12.999Z,55.28
2018-08-12T10:34:40.745Z,55.66
2018-08-12T10:37:09.684Z,55.15
2018-08-12T10:39:38.052Z,55.22
2018-08-12T10:42:05.802Z,53.82
2018-08-12T10:44:34.768Z,54.14
2018-08-12T10:47:03.129Z,54.11
2018-08-12T10:49:30.926Z,55.23
2018-08-12T10:52:00.497Z,54.76
2018-08-12T10:54:27.861Z,54.53
2018-08-12T10:56:56.201Z,54.93
2018-08-12T10:59:25.215Z,54.89
2018-08-12T11:01:53.506Z,55.05
2018-08-12T11:04:21.851Z,54.92
2018-08-12T11:06:51.123Z,54.86
2018-08-12T11:09:19.480Z,55.42
2018-08-12T11:11:47.669Z,55.04
2018-08-12T11:14:15.605Z,55.05
2018-08-12T11:16:43.977Z,55.21
2018-08-12T11:19:12.293Z,55.47
2018-08-12T11:21:41.248Z,55.70
2018-08-12T11:24:09.574Z,56.19
2018-08-12T11:26:37.345Z,56.27
2018-08-12T11:29:06.269Z,56.89
2018-08-12T11:31:34.599Z,56.68
2018-08-12T11:34:03.067Z,56.12
2018-08-12T11:36:31.433Z,54.77
2018-08-12T11:38:59.792Z,55.22
2018-08-12T11:41:27.538Z,53.79
2018-08-12T11:43:56.646Z,52.55
2018-08-12T11:46:25.094Z,51.57
2018-08-12T11:48:54.393Z,51.81
2018-08-12T11:51:22.162Z,50.02
2018-08-12T11:53:51.136Z,49.89
2018-08-12T11:56:19.466Z,49.99
2018-08-12T11:58:47.780Z,50.03
2018-08-12T12:01:16.119Z,50.09
2018-08-12T12:03:44.487Z,50.17
2018-08-12T12:06:12.830Z,50.44
2018-08-12T12:08:41.209Z,50.69
2018-08-12T12:11:09.539Z,50.50
2018-08-12T12:13:37.855Z,51.02
2018-08-12T12:16:06.251Z,50.67
2018-08-12T12:18:34.077Z,49.37
2018-08-12T12:21:02.981Z,49.47
2018-08-12T12:23:31.396Z,48.27
2018-08-12T12:25:59.654Z,48.82
2018-08-12T12:28:28.002Z,49.11
2018-08-12T12:30:55.741Z,50.87
2018-08-12T12:33:24.638Z,49.84
2018-08-12T12:35:52.968Z,49.52
2018-08-12T12:38:20.779Z,48.10
2018-08-12T12:40:49.709Z,49.49
2018-08-12T12:43:17.437Z,49.75
2018-08-12T12:45:46.346Z,49.85
2018-08-12T12:48:14.667Z,52.48
2018-08-12T12:50:42.520Z,53.24
2018-08-12T12:53:11.450Z,53.44
2018-08-12T12:55:40.694Z,53.09
2018-08-12T12:58:08.369Z,52.90
2018-08-12T13:00:36.638Z,52.30
2018-08-12T13:03:04.971Z,52.98
2018-08-12T13:05:33.639Z,53.61
2018-08-12T13:08:01.918Z,53.50
2018-08-12T13:10:30.260Z,53.78
2018-08-12T13:12:58.940Z,54.02
2018-08-12T13:15:27.833Z,53.16
2018-08-12T13:17:56.153Z,53.30
2018-08-12T13:20:24.568Z,53.16
2018-08-12T13:22:52.917Z,54.01
2018-08-12T13:25:21.247Z,53.75
2018-08-12T13:27:48.980Z,53.84
2018-08-12T13:30:18.088Z,52.99
2018-08-12T13:32:46.411Z,52.23
2018-08-12T13:35:14.722Z,51.94
2018-08-12T13:37:43.093Z,52.78
2018-08-12T13:40:10.972Z,52.68
2018-08-12T13:42:39.322Z,51.74
2018-08-12T13:45:08.233Z,51.37
2018-08-12T13:47:36.565Z,50.02
2018-08-12T13:50:05.818Z,48.87
2018-08-12T13:52:33.986Z,47.62
2018-08-12T13:55:02.129Z,45.11
2018-08-12T13:57:31.044Z,44.09
2018-08-12T13:59:58.818Z,44.11
2018-08-12T14:02:27.762Z,45.16
2018-08-12T14:04:56.069Z,44.41
2018-08-12T14:07:23.810Z,43.97
2018-08-12T14:09:52.715Z,44.63
2018-08-12T14:12:21.107Z,44.36
2018-08-12T14:14:49.450Z,45.35
2018-08-12T14:17:17.766Z,45.23
2018-08-12T14:19:46.128Z,46.08
2018-08-12T14:22:13.891Z,45.82
2018-08-12T14:24:42.210Z,45.77
2018-08-12T14:27:12.079Z,43.59
2018-08-12T14:29:39.502Z,42.01
2018-08-12T14:32:07.622Z,40.90
2018-08-12T14:34:36.548Z,40.88
2018-08-12T14:37:04.881Z,40.58
2018-08-12T14:39:33.314Z,38.97
2018-08-12T14:42:01.674Z,39.02
2018-08-12T14:44:30.022Z,38.83
2018-08-12T14:46:58.330Z,39.58
2018-08-12T14:49:26.637Z,40.12
2018-08-12T14:51:54.961Z,40.88
2018-08-12T14:54:23.314Z,41.28
2018-08-12T14:56:51.060Z,39.58
2018-08-12T14:59:19.960Z,39.07
2018-08-12T15:01:47.745Z,39.15
2018-08-12T15:04:16.640Z,39.49
2018-08-12T15:06:44.516Z,39.92
2018-08-12T15:09:13.355Z,40.87
2018-08-12T15:11:41.680Z,42.18
2018-08-12T15:14:09.998Z,43.26
2018-08-12T15:16:37.735Z,43.99
2018-08-12T15:19:06.073Z,43.57
2018-08-12T15:21:34.990Z,42.88
2018-08-12T15:24:02.831Z,41.60
2018-08-12T15:26:31.711Z,41.46
2018-08-12T15:29:00.025Z,41.59
2018-08-12T15:31:28.403Z,41.96
2018-08-12T15:33:56.738Z,42.13
2018-08-12T15:36:25.076Z,41.76
2018-08-12T15:38:53.391Z,41.36
2018-08-12T15:41:21.737Z,40.86
2018-08-12T15:43:50.063Z,41.28
2018-08-12T15:46:18.436Z,41.80
2018-08-12T15:48:46.761Z,42.48
2018-08-12T15:54:48.185Z,43.86
2018-08-12T15:57:16.511Z,43.95
2018-08-12T15:59:44.869Z,44.52
2018-08-12T16:02:13.228Z,45.13
2018-08-12T16:04:40.961Z,45.49
2018-08-12T16:07:10.242Z,45.96
2018-08-12T16:09:39.166Z,46.66
2018-08-12T16:12:06.905Z,46.72
2018-08-12T16:14:35.869Z,46.68
2018-08-12T16:17:04.190Z,46.56
2018-08-12T16:19:31.933Z,46.73
2018-08-12T16:22:00.871Z,46.82
2018-08-12T16:24:29.204Z,46.35
2018-08-12T16:26:57.591Z,46.54
2018-08-12T16:29:25.959Z,46.92
2018-08-12T16:31:54.288Z,47.28
2018-08-12T16:34:22.650Z,47.34
2018-08-12T16:36:50.962Z,47.87
2018-08-12T16:39:19.297Z,48.17
2018-08-12T16:41:47.639Z,48.25
2018-08-12T16:44:15.978Z,48.57
2018-08-12T16:46:43.754Z,48.44
2018-08-12T16:49:12.685Z,48.49
2018-08-12T16:51:40.418Z,48.79
2018-08-12T16:54:09.316Z,49.26
2018-08-12T16:56:37.692Z,49.20
2018-08-12T16:59:05.462Z,49.33
2018-08-12T17:01:33.785Z,49.49
2018-08-12T17:04:02.696Z,49.52
2018-08-12T17:06:31.016Z,49.29
2018-08-12T17:08:59.331Z,49.27
2018-08-12T17:11:27.663Z,49.73
2018-08-12T17:13:56.013Z,50.38
2018-08-12T17:16:24.397Z,50.52
2018-08-12T17:18:53.260Z,50.79
2018-08-12T17:21:21.001Z,51.04
2018-08-12T17:23:49.386Z,51.30
2018-08-12T17:26:17.943Z,51.32
2018-08-12T17:28:46.883Z,51.53
2018-08-12T17:31:15.266Z,51.47
2018-08-12T17:33:43.006Z,51.16
2018-08-12T17:36:11.373Z,50.59
2018-08-12T17:38:39.695Z,50.73
2018-08-12T17:41:08.001Z,50.61
2018-08-12T17:43:37.133Z,50.65
2018-08-12T17:46:05.251Z,50.99
2018-08-12T17:48:33.681Z,51.44
2018-08-12T17:51:02.255Z,51.64
2018-08-12T17:53:30.615Z,52.11
2018-08-12T17:55:58.977Z,52.41
2018-08-12T17:58:27.308Z,52.77
2018-08-12T18:00:55.691Z,53.03
2018-08-12T18:03:24.088Z,53.00
2018-08-12T18:05:52.416Z,53.41
2018-08-12T18:08:20.791Z,53.70
2018-08-12T18:10:48.529Z,53.85
2018-08-12T18:13:16.893Z,54.01
2018-08-12T18:15:45.988Z,54.29
2018-08-12T18:18:13.733Z,54.33
2018-08-12T18:20:42.635Z,55.04
2018-08-12T18:23:10.948Z,55.09
2018-08-12T18:25:39.514Z,55.34
2018-08-12T18:28:07.841Z,55.83
2018-08-12T18:30:35.627Z,56.12
2018-08-12T18:33:04.546Z,56.48
2018-08-12T18:35:32.960Z,57.03
2018-08-12T18:38:01.303Z,57.38
2018-08-12T18:40:29.670Z,57.55
2018-08-12T18:42:58.025Z,57.69
2018-08-12T18:45:25.829Z,57.66
2018-08-12T18:47:54.153Z,57.84
2018-08-12T18:50:23.079Z,58.11
2018-08-12T18:52:51.412Z,58.34
2018-08-12T18:55:19.224Z,58.89
2018-08-12T18:57:48.179Z,59.36
2018-08-12T19:00:15.946Z,59.78
2018-08-12T19:02:44.867Z,59.74
2018-08-12T19:05:13.214Z,59.80
2018-08-12T19:07:41.621Z,59.99
2018-08-12T19:10:09.360Z,60.17
2018-08-12T19:12:38.299Z,60.42
2018-08-12T19:15:06.626Z,60.63
2018-08-12T19:17:34.974Z,61.04
2018-08-12T19:20:03.301Z,61.58
2018-08-12T19:22:31.678Z,61.65
2018-08-12T19:25:00.078Z,61.91
2018-08-12T19:27:28.797Z,62.14
2018-08-12T19:29:57.119Z,62.10
2018-08-12T19:32:25.582Z,62.32
2018-08-12T19:34:53.905Z,62.22
2018-08-12T19:37:22.539Z,62.21
2018-08-12T19:39:50.882Z,62.13
2018-08-12T19:42:19.215Z,62.15
2018-08-12T19:44:47.577Z,62.38
2018-08-12T19:47:15.306Z,62.54
2018-08-12T19:49:44.231Z,62.62
2018-08-12T19:52:12.034Z,62.76
2018-08-12T19:54:40.955Z,62.96
2018-08-12T19:57:09.302Z,63.15
2018-08-12T19:59:37.623Z,63.21
2018-08-12T20:02:05.581Z,63.28
2018-08-12T20:04:34.493Z,63.57
2018-08-12T20:07:02.861Z,63.86
2018-08-12T20:09:31.187Z,64.07
2018-08-12T20:11:59.276Z,63.96
2018-08-12T20:14:27.536Z,64.12
2018-08-12T20:16:55.968Z,64.02
2018-08-12T20:19:25.142Z,64.19
2018-08-12T20:21:53.279Z,64.14
2018-08-12T20:24:21.613Z,64.13
2018-08-12T20:26:49.950Z,64.12
2018-08-12T20:29:17.691Z,64.18
2018-08-12T20:31:46.597Z,64.35
2018-08-12T20:34:14.955Z,64.52
2018-08-12T20:36:43.268Z,64.60
2018-08-12T20:39:11.419Z,64.55
2018-08-12T20:41:39.960Z,64.64
2018-08-12T20:44:08.292Z,64.74
2018-08-12T20:46:36.064Z,64.75
2018-08-12T20:49:04.982Z,64.40
2018-08-12T20:51:33.302Z,64.50
2018-08-12T20:54:01.674Z,64.77
2018-08-12T20:56:30.025Z,64.97
2018-08-12T20:58:57.938Z,65.08
2018-08-12T21:01:26.834Z,65.06
2018-08-12T21:03:54.694Z,65.26
2018-08-12T21:06:23.600Z,65.49
2018-08-12T21:08:51.447Z,65.83
2018-08-12T21:11:20.299Z,65.89
2018-08-12T21:13:48.652Z,66.05
2018-08-12T21:16:17.014Z,66.08
2018-08-12T21:18:45.313Z,66.00
2018-08-12T21:21:13.629Z,66.15
2018-08-12T21:23:41.962Z,66.45
2018-08-12T21:26:10.368Z,66.60
2018-08-12T21:28:38.048Z,66.74
2018-08-12T21:31:07.810Z,66.82
2018-08-12T21:33:36.530Z,66.90
2018-08-12T21:36:03.887Z,67.00
2018-08-12T21:38:32.790Z,66.91
2018-08-12T21:41:01.133Z,66.62
2018-08-12T21:43:29.451Z,66.80
2018-08-12T21:45:57.221Z,66.94
2018-08-12T21:48:26.119Z,66.98
2018-08-12T21:50:54.444Z,67.09
2018-08-12T21:53:22.771Z,67.10
2018-08-12T21:55:51.115Z,67.17
2018-08-12T21:58:19.554Z,66.97
2018-08-12T22:00:47.835Z,66.78
2018-08-12T22:03:15.573Z,66.74
2018-08-12T22:05:44.529Z,66.81
2018-08-12T22:08:12.851Z,66.87
2018-08-12T22:10:41.171Z,66.87
2018-08-12T22:13:08.964Z,66.87
2018-08-12T22:15:37.816Z,66.88
2018-08-12T22:18:05.554Z,66.66
2018-08-12T22:20:34.464Z,66.84
2018-08-12T22:23:02.780Z,67.15
2018-08-12T22:25:30.517Z,67.52
2018-08-12T22:27:59.424Z,68.02
2018-08-12T22:30:27.743Z,68.16
2018-08-12T22:32:56.059Z,68.25
2018-08-12T22:35:24.387Z,68.37
2018-08-12T22:37:52.121Z,68.33
2018-08-12T22:40:21.017Z,68.37
2018-08-12T22:42:49.341Z,68.52
2018-08-12T22:45:17.666Z,68.35
2018-08-12T22:47:45.974Z,68.15
2018-08-12T22:50:14.287Z,67.92
2018-08-12T22:52:42.613Z,67.69
2018-08-12T22:55:10.937Z,67.47
2018-08-12T22:57:38.668Z,67.39
2018-08-12T23:00:07.574Z,67.74
2018-08-12T23:02:35.310Z,68.01
2018-08-12T23:05:04.201Z,67.94
2018-08-12T23:07:32.548Z,67.77
2018-08-12T23:10:00.882Z,67.82
2018-08-12T23:12:29.218Z,67.87
2018-08-12T23:14:57.544Z,67.59
2018-08-12T23:17:25.281Z,67.27
2018-08-12T23:19:53.612Z,66.92
2018-08-12T23:22:22.514Z,66.60
2018-08-12T23:24:50.826Z,66.43
2018-08-12T23:27:18.568Z,66.34
2018-08-12T23:29:47.465Z,66.37
2018-08-12T23:32:15.784Z,66.90
2018-08-12T23:34:44.108Z,67.54
2018-08-12T23:37:12.422Z,67.73
2018-08-12T23:39:40.159Z,67.99
2018-08-12T23:42:09.067Z,68.06
2018-08-12T23:44:37.378Z,68.24
2018-08-12T23:47:05.120Z,68.63
2018-08-12T23:49:34.026Z,69.03
2018-08-12T23:52:02.352Z,69.23
2018-08-12T23:54:30.670Z,69.28
2018-08-12T23:56:59.002Z,68.96
2018-08-12T23:59:26.739Z,68.79
